»·PEaware :: PHKIM 0ID2-KGTF

PHKIM :: 0ID2-KGTF

FLIGHT INFORMATION

Flight Status: Arrived
Operator: Unknown
More flights by this operator :: More flights under this callsign
Pilot: Kim B. (19519)
Aircraft: LET KUNOVICE L-410 TURBOLET
(L410)
More flights by this aircraft type
Origin: 0ID2 Flying Joseph Ranch Airport
United States
Destination: KGTF Great Falls Intl
United States
More flights between these airports :: More routes between these airports
Route: +LKT V113 HLN V21 HOXEK
File this flight plan on PilotEdge
Remarks:
Altitude:
(Current/Filed)
13,000ft
Speed:
(Current/Filed)
200kts
Departed: 23-Oct-18 06:30 PM
Arrived: 23-Oct-18 07:58 PM
Distance/Time
Traveled:
208nm/1:28
Distance/Time
To Go:
Arrived

Flight Plot

Page will automatically refresh every two minutes.

Flight plan parsing failed; only flown route is shown


Map Options




Map Legend


Flown Route
Filed Route
Departure Airport
Arrival Airport
Navaid (VOR, NDB)
Fix

Horizontal Profiles

Position Reports

Time Latitude Longitude Heading Altitude Ground
Speed
23-Oct-18 18:28 44.440157 -113.770688 34 5621ft 0kts
23-Oct-18 18:29 44.440157 -113.770688 34 5621ft 0kts
23-Oct-18 18:30 44.440157 -113.770688 34 5621ft 0kts
23-Oct-18 18:31 44.439619 -113.767188 124 5624ft 27kts
23-Oct-18 18:32 44.439484 -113.766809 303 5625ft 68kts
23-Oct-18 18:33 44.458192 -113.807328 318 5882ft 176kts
23-Oct-18 18:34 44.500827 -113.831086 339 7312ft 152kts
23-Oct-18 18:35 44.534667 -113.847805 339 8687ft 75kts
23-Oct-18 18:36 44.557231 -113.858279 339 9407ft 93kts
23-Oct-18 18:37 44.585056 -113.870345 340 10472ft 116kts
23-Oct-18 18:38 44.618100 -113.884161 340 11503ft 130kts
23-Oct-18 18:39 44.652831 -113.898279 340 12477ft 124kts
23-Oct-18 18:40 44.681539 -113.909749 339 13293ft 89kts
23-Oct-18 18:41 44.706091 -113.922112 340 13354ft 101kts
23-Oct-18 18:42 44.731972 -113.935121 339 13639ft 96kts
23-Oct-18 18:43 44.756961 -113.948283 338 13856ft 97kts
23-Oct-18 18:44 44.795271 -113.968391 339 12810ft 191kts
23-Oct-18 18:45 44.841042 -113.992398 339 13042ft 175kts
23-Oct-18 18:46 44.886889 -114.016442 339 13042ft 177kts
23-Oct-18 18:47 44.933313 -114.040786 339 13042ft 179kts
23-Oct-18 18:48 44.972461 -114.061313 339 13042ft 181kts
23-Oct-18 18:49 45.020006 -114.086240 339 13042ft 184kts
23-Oct-18 18:50 45.062037 -114.072237 48 13044ft 185kts
23-Oct-18 18:51 45.091796 -114.017432 51 13043ft 188kts
23-Oct-18 18:52 45.115227 -113.980436 46 13087ft 190kts
23-Oct-18 18:53 45.153495 -113.929410 42 13216ft 180kts
23-Oct-18 18:54 45.182075 -113.893968 42 14216ft 129kts
23-Oct-18 18:55 45.205771 -113.865194 42 14887ft 103kts
23-Oct-18 18:56 45.231902 -113.846544 46 15044ft 124kts
23-Oct-18 18:57 45.260092 -113.804946 45 15016ft 161kts
23-Oct-18 18:58 45.294554 -113.760057 42 15012ft 174kts
23-Oct-18 18:59 45.331732 -113.714080 41 15011ft 180kts
23-Oct-18 19:00 45.369781 -113.667816 41 15010ft 184kts
23-Oct-18 19:01 45.408955 -113.620389 41 15010ft 186kts
23-Oct-18 19:02 45.438898 -113.584152 41 15010ft 188kts
23-Oct-18 19:03 45.485790 -113.527336 40 15010ft 191kts
23-Oct-18 19:04 45.519806 -113.486046 40 15010ft 193kts
23-Oct-18 19:05 45.567729 -113.427780 40 15010ft 196kts
23-Oct-18 19:06 45.602295 -113.385524 45 15007ft 198kts
23-Oct-18 19:07 45.633232 -113.307065 52 15024ft 200kts
23-Oct-18 19:08 45.662399 -113.259541 46 15029ft 203kts
23-Oct-18 19:09 45.702724 -113.202599 43 15037ft 205kts
23-Oct-18 19:10 45.744297 -113.146746 53 15044ft 206kts
23-Oct-18 19:11 45.775986 -113.094234 46 15047ft 207kts
23-Oct-18 19:12 45.802103 -113.056541 43 15046ft 207kts
23-Oct-18 19:13 45.843554 -112.999819 42 15045ft 204kts
23-Oct-18 19:14 45.884355 -112.945098 42 15045ft 199kts
23-Oct-18 19:15 45.924293 -112.891745 42 15045ft 193kts
23-Oct-18 19:16 45.962747 -112.840361 42 15046ft 187kts
23-Oct-18 19:17 46.000617 -112.789680 42 15047ft 185kts
23-Oct-18 19:18 46.038214 -112.739254 42 15046ft 184kts
23-Oct-18 19:19 46.075091 -112.689727 42 15046ft 179kts
23-Oct-18 19:20 46.111234 -112.641314 42 15045ft 174kts
23-Oct-18 19:21 46.146352 -112.594216 42 15046ft 173kts
23-Oct-18 19:22 46.181255 -112.547154 42 15044ft 170kts
23-Oct-18 19:23 46.214936 -112.501596 42 15130ft 159kts
23-Oct-18 19:24 46.245659 -112.459975 42 15330ft 144kts
23-Oct-18 19:25 46.274038 -112.421465 42 15521ft 136kts
23-Oct-18 19:26 46.300562 -112.385415 42 15674ft 136kts
23-Oct-18 19:27 46.328741 -112.347069 44 15834ft 138kts
23-Oct-18 19:28 46.357082 -112.307478 43 15573ft 174kts
23-Oct-18 19:29 46.395344 -112.254757 43 15089ft 178kts
23-Oct-18 19:30 46.431062 -112.205903 43 15063ft 175kts
23-Oct-18 19:31 46.470464 -112.151796 43 14132ft 208kts
23-Oct-18 19:32 46.509437 -112.098182 43 14379ft 173kts
23-Oct-18 19:33 46.541238 -112.054314 43 15114ft 147kts
23-Oct-18 19:34 46.574475 -112.008447 43 15063ft 175kts
23-Oct-18 19:35 46.608192 -111.954467 48 15061ft 184kts
23-Oct-18 19:36 46.653454 -111.920160 22 15060ft 188kts
23-Oct-18 19:37 46.701389 -111.888733 23 15060ft 190kts
23-Oct-18 19:38 46.749657 -111.856202 23 15060ft 192kts
23-Oct-18 19:39 46.798595 -111.824090 19 15061ft 194kts
23-Oct-18 19:40 46.849062 -111.794477 21 15060ft 196kts
23-Oct-18 19:41 46.899471 -111.762472 22 15059ft 199kts
23-Oct-18 19:42 46.950228 -111.729462 22 15051ft 200kts
23-Oct-18 19:43 47.001289 -111.695985 22 15038ft 202kts
23-Oct-18 19:44 47.052552 -111.662250 22 15020ft 203kts
23-Oct-18 19:45 47.104058 -111.629192 23 15010ft 203kts
23-Oct-18 19:46 47.155812 -111.647135 335 15007ft 196kts
23-Oct-18 19:47 47.202576 -111.674904 335 15001ft 171kts
23-Oct-18 19:48 47.245081 -111.700815 345 14997ft 164kts
23-Oct-18 19:49 47.281331 -111.660767 43 14529ft 192kts
23-Oct-18 19:50 47.322525 -111.600052 43 13036ft 218kts
23-Oct-18 19:51 47.364679 -111.538112 43 11711ft 208kts
23-Oct-18 19:52 47.404065 -111.480327 44 10099ft 181kts
23-Oct-18 19:53 47.430536 -111.440862 49 8819ft 115kts
23-Oct-18 19:54 47.452704 -111.408043 44 7169ft 112kts
23-Oct-18 19:55 47.474041 -111.375384 48 5067ft 148kts
23-Oct-18 19:56 47.499456 -111.349413 321 3638ft 94kts
23-Oct-18 19:57 47.489730 -111.380487 213 4154ft 85kts
23-Oct-18 19:58 47.472031 -111.406310 221 4527ft 94kts
23-Oct-18 19:59 47.468514 -111.385311 50 3788ft 108kts
23-Oct-18 20:00 47.477368 -111.369681 119 3671ft 3kts
23-Oct-18 20:01 47.479453 -111.365789 78 3670ft 10kts
23-Oct-18 20:02 47.479239 -111.362608 134 3672ft 0kts
23-Oct-18 20:03 47.479239 -111.362608 134 3672ft 0kts
23-Oct-18 20:04 47.479239 -111.362608 134 3672ft 0kts
23-Oct-18 20:05 47.479239 -111.362608 134 3672ft 0kts

Navigation Log

Ident Type
Flight plan parsing failed, navigation log unavailable